Pagrindinis puslapis
METAR-TAF:

METAR-TAF

Oro uostai :

Rio Kuartas, Argentina

platuma: 33-07S, ilguma: 064-14W, Aukštis: 420 m

Dabartinis oras

Ataskaita buvo paskelbta 1 valandą ir 0 minutes, ne 15:00 UTC
Vėjas 8 kt iš Šiaurės Vakarų
Temperatūra 23°C
Drėgmė 50%
Slėgis 1005 hPa
Matomumas 10 km arba daugiau
nėra debesų žemiau 1500 m ir nėra kamuolinių lietaus debesų

METAR: SAOC 151500Z 32008KT CAVOK 23/12 Q1005 RMK ESTIMATED WIND

Laikas: 13:00 (16:00 UTC)


TAF: trūkstamas

Orai ataskaitas ir orų prognozės (METAR, TAF).

turimą stotys yra geltonos ir raudonos taškus žemėlapyje.

Perkelti pele per norėdami pamatyti stoties vardą.

Tada spustelėkite, norėdami matyti oro stebėjimo ir prognozės.

Norėdami pakeisti žemėlapį: spustelėkite ant žalios mygtukų su juodo kryžiaus žemyn,; žalią mygtuką su brūkšneliu, jei norite nutolinti; arba žalių rodyklių gretimoms žemėlapius.


METAR-TAF: